Time;durP1;ratioP1;P1;durP2;ratioP2;P2;SDS_P1;SDS_P2;PMS_P1;PMS_P2;Temp;Humidity;BMP_temperature;BMP_pressure;BME280_temperature;BME280_humidity;BME280_pressure;Samples;Min_cycle;Max_cycle;Signal;HPM_P1;HPM_P2
2021/11/19 00:02:01;;;;;;;12.45;3.72;;;10.00;99.90;;;;;;6732293;88;20210;-81
2021/11/19 00:12:04;;;;;;;10.63;4.12;;;10.20;99.90;;;;;;6735793;88;20211;-81
2021/11/19 00:22:07;;;;;;;10.30;3.92;;;10.10;99.90;;;;;;6731965;88;20225;-80
2021/11/19 00:32:10;;;;;;;7.15;3.60;;;10.20;99.90;;;;;;6735674;88;20209;-80
2021/11/19 00:42:11;;;;;;;8.60;4.30;;;10.30;99.90;;;;;;6735645;88;20754;-80
2021/11/19 00:52:14;;;;;;;9.75;3.87;;;10.30;99.90;;;;;;6731418;88;20308;-80
2021/11/19 01:02:19;;;;;;;7.07;3.28;;;10.20;99.90;;;;;;6731269;88;20211;-80
2021/11/19 01:12:23;;;;;;;6.97;2.70;;;10.30;99.90;;;;;;6732232;88;20201;-80
2021/11/19 01:22:32;;;;;;;5.20;2.65;;;10.30;99.90;;;;;;6735791;88;20263;-80
2021/11/19 01:32:33;;;;;;;4.97;2.62;;;10.40;99.90;;;;;;6736926;88;20223;-81
2021/11/19 01:42:38;;;;;;;5.75;2.33;;;10.40;99.90;;;;;;6735563;88;20295;-80
2021/11/19 01:52:52;;;;;;;5.10;2.37;;;10.40;99.90;;;;;;6735726;88;20216;-80
2021/11/19 02:02:55;;;;;;;7.72;3.00;;;10.50;99.90;;;;;;6718247;88;20201;-80
2021/11/19 02:13:20;;;;;;;7.50;3.17;;;10.50;99.90;;;;;;6717195;88;20336;-81
2021/11/19 02:23:28;;;;;;;8.10;2.97;;;10.50;99.90;;;;;;6712098;88;20179;-79
2021/11/19 02:33:30;;;;;;;7.03;3.08;;;10.50;99.90;;;;;;6717456;88;20220;-81
2021/11/19 02:43:47;;;;;;;6.35;3.15;;;10.30;99.90;;;;;;6718709;88;20625;-80
2021/11/19 02:53:48;;;;;;;5.87;2.90;;;10.10;99.90;;;;;;6717886;88;20276;-81
2021/11/19 03:03:59;;;;;;;5.57;2.72;;;10.00;99.90;;;;;;6717104;88;20240;-80
2021/11/19 03:14:01;;;;;;;5.05;3.10;;;10.10;99.90;;;;;;6730108;88;20215;-80
2021/11/19 03:24:03;;;;;;;9.25;3.30;;;10.10;99.90;;;;;;6735124;88;20218;-80
2021/11/19 03:34:07;;;;;;;9.43;3.37;;;10.10;99.90;;;;;;6734784;88;20210;-80
2021/11/19 03:44:19;;;;;;;5.18;3.20;;;10.10;99.90;;;;;;6735196;88;20181;-80
2021/11/19 03:54:22;;;;;;;6.62;3.00;;;10.10;99.90;;;;;;6737972;88;20188;-80
2021/11/19 04:04:27;;;;;;;5.90;2.90;;;10.20;99.90;;;;;;6737235;88;20210;-80
2021/11/19 04:14:28;;;;;;;5.45;2.30;;;10.10;99.90;;;;;;6732644;88;20195;-80
2021/11/19 04:24:34;;;;;;;3.97;2.35;;;10.10;99.90;;;;;;6731951;88;20216;-80
2021/11/19 04:34:35;;;;;;;5.20;2.40;;;10.20;99.90;;;;;;6733144;88;20185;-79
2021/11/19 04:44:36;;;;;;;4.53;2.70;;;10.10;99.90;;;;;;6735273;88;20330;-80
2021/11/19 04:54:38;;;;;;;7.03;2.70;;;10.10;99.90;;;;;;6737204;88;20226;-79
2021/11/19 05:04:39;;;;;;;5.18;2.47;;;10.10;99.90;;;;;;6736290;88;20194;-80
2021/11/19 05:14:39;;;;;;;4.32;2.20;;;10.10;99.90;;;;;;6735230;88;20195;-80
2021/11/19 05:24:40;;;;;;;3.28;2.00;;;10.00;99.90;;;;;;6736304;88;20192;-80
2021/11/19 05:34:43;;;;;;;5.50;2.78;;;10.10;99.90;;;;;;6732146;88;20207;-80
2021/11/19 05:44:43;;;;;;;3.42;2.03;;;10.20;99.90;;;;;;6734184;88;20595;-81
2021/11/19 05:54:44;;;;;;;3.72;2.05;;;10.20;99.90;;;;;;6735177;88;20207;-80
2021/11/19 06:04:45;;;;;;;4.87;2.30;;;10.20;99.90;;;;;;6730280;88;20209;-80
2021/11/19 06:14:50;;;;;;;4.07;2.00;;;10.20;99.90;;;;;;6730739;88;20215;-79
2021/11/19 06:24:54;;;;;;;3.83;2.15;;;10.20;99.90;;;;;;6733592;88;20193;-80
2021/11/19 06:34:54;;;;;;;4.85;2.40;;;10.20;99.90;;;;;;6736772;88;20829;-82
2021/11/19 06:44:55;;;;;;;8.02;2.50;;;10.20;99.90;;;;;;6735986;88;20193;-79
2021/11/19 06:54:55;;;;;;;5.10;2.78;;;10.30;99.90;;;;;;6738166;88;20277;-79
2021/11/19 07:04:56;;;;;;;5.75;3.20;;;10.30;99.90;;;;;;6734623;88;20862;-80
2021/11/19 07:14:56;;;;;;;6.15;3.05;;;10.40;99.90;;;;;;6745586;88;20202;-80
2021/11/19 07:24:57;;;;;;;6.47;3.30;;;10.40;99.90;;;;;;6746037;88;20198;-80
2021/11/19 07:34:57;;;;;;;5.72;2.70;;;10.30;99.90;;;;;;6741342;88;21036;-79
2021/11/19 07:44:58;;;;;;;6.85;2.62;;;10.40;99.90;;;;;;6741499;88;20245;-79
2021/11/19 07:54:58;;;;;;;5.20;2.47;;;10.40;99.90;;;;;;6739757;88;20198;-78
2021/11/19 08:04:59;;;;;;;4.47;2.20;;;10.50;99.90;;;;;;6728191;88;20182;-79
2021/11/19 08:15:00;;;;;;;5.12;1.60;;;10.80;99.90;;;;;;6732432;88;20218;-78
2021/11/19 08:25:02;;;;;;;5.57;3.30;;;10.90;99.90;;;;;;6734364;88;20193;-79
2021/11/19 08:35:03;;;;;;;6.62;3.50;;;10.80;99.90;;;;;;6736780;88;20525;-78
2021/11/19 08:45:04;;;;;;;7.30;3.12;;;10.60;99.90;;;;;;6728374;88;20213;-78
2021/11/19 08:55:08;;;;;;;5.72;3.10;;;10.70;99.90;;;;;;6719189;88;20275;-79
2021/11/19 09:05:09;;;;;;;5.43;2.80;;;10.80;99.90;;;;;;6716146;88;20283;-78
2021/11/19 09:15:14;;;;;;;2.72;1.50;;;10.80;99.90;;;;;;6725442;88;20190;-79
2021/11/19 09:25:17;;;;;;;3.85;1.37;;;11.00;99.90;;;;;;6732964;88;20218;-79
2021/11/19 09:35:21;;;;;;;2.62;1.55;;;11.10;99.90;;;;;;6736129;88;20189;-79
2021/11/19 09:45:50;;;;;;;3.65;1.58;;;11.10;99.90;;;;;;6733974;88;20206;-79
2021/11/19 09:56:18;;;;;;;3.00;1.60;;;11.40;99.90;;;;;;6729284;88;20204;-79
2021/11/19 10:06:25;;;;;;;3.17;1.65;;;11.40;99.90;;;;;;6729913;88;20218;-79
2021/11/19 10:16:37;;;;;;;3.65;1.80;;;11.60;99.90;;;;;;6730648;88;20706;-79
2021/11/19 10:26:38;;;;;;;3.30;1.90;;;11.70;99.90;;;;;;6733243;88;20701;-82
2021/11/19 10:36:47;;;;;;;3.83;1.83;;;11.80;99.90;;;;;;6733064;88;20192;-79
2021/11/19 10:47:07;;;;;;;3.90;1.27;;;11.90;99.90;;;;;;6726959;88;20197;-78
2021/11/19 10:57:44;;;;;;;2.30;1.30;;;11.90;99.90;;;;;;6735521;88;20232;-78
2021/11/19 11:08:09;;;;;;;2.17;1.27;;;11.80;99.90;;;;;;6738014;88;20182;-79
2021/11/19 11:18:14;;;;;;;3.33;1.35;;;11.80;99.90;;;;;;6741277;88;20189;-80
2021/11/19 11:28:21;;;;;;;3.07;1.37;;;11.70;99.90;;;;;;6741628;88;20206;-79
2021/11/19 11:38:43;;;;;;;3.20;1.35;;;11.90;99.90;;;;;;6737149;88;20220;-80
2021/11/19 11:49:09;;;;;;;2.37;1.40;;;11.70;99.90;;;;;;6709635;77;20181;-77
2021/11/19 11:59:31;;;;;;;3.30;1.40;;;11.70;99.90;;;;;;6718272;88;20632;-78
2021/11/19 12:10:00;;;;;;;4.05;1.52;;;11.70;99.90;;;;;;6725451;88;20237;-75
2021/11/19 12:20:13;;;;;;;2.62;1.33;;;11.80;99.90;;;;;;6716288;88;20210;-77
2021/11/19 12:30:34;;;;;;;2.25;1.20;;;11.70;99.90;;;;;;6733800;88;20203;-79
2021/11/19 12:40:38;;;;;;;2.30;1.05;;;11.80;99.90;;;;;;6727812;88;20389;-77
2021/11/19 12:51:00;;;;;;;2.60;1.40;;;12.00;99.90;;;;;;6723258;88;20270;-77
2021/11/19 13:01:22;;;;;;;3.12;1.55;;;12.00;99.90;;;;;;6723387;88;20182;-77
2021/11/19 13:11:29;;;;;;;3.62;1.62;;;12.00;99.90;;;;;;6723975;88;20177;-75
2021/11/19 13:21:32;;;;;;;2.83;1.75;;;12.10;99.90;;;;;;6728593;88;20637;-77
2021/11/19 13:31:40;;;;;;;2.50;1.50;;;12.20;99.90;;;;;;6730603;88;20600;-77
2021/11/19 13:41:47;;;;;;;2.85;1.87;;;12.30;99.90;;;;;;6731775;88;20623;-77
2021/11/19 13:52:00;;;;;;;3.65;2.40;;;12.10;99.90;;;;;;6726853;88;20237;-78
2021/11/19 14:02:09;;;;;;;7.00;3.20;;;12.30;99.90;;;;;;6724738;88;20216;-78
2021/11/19 14:12:17;;;;;;;5.87;3.80;;;12.10;99.90;;;;;;6731182;88;20201;-75
2021/11/19 14:22:20;;;;;;;7.37;4.25;;;12.00;99.90;;;;;;6726647;88;20194;-78
2021/11/19 14:32:42;;;;;;;6.05;3.83;;;12.10;99.90;;;;;;6730574;88;20193;-79
2021/11/19 14:42:43;;;;;;;6.95;4.57;;;12.10;99.90;;;;;;6733496;88;20182;-79
2021/11/19 14:52:52;;;;;;;6.55;3.95;;;12.00;99.90;;;;;;6724684;88;20285;-77
2021/11/19 15:03:04;;;;;;;7.62;4.43;;;12.00;99.90;;;;;;6723450;88;20323;-78
2021/11/19 15:13:35;;;;;;;7.22;5.10;;;12.00;99.90;;;;;;6719756;88;20178;-79
2021/11/19 15:23:40;;;;;;;8.82;5.22;;;11.90;99.90;;;;;;6718807;88;20234;-77
2021/11/19 15:34:03;;;;;;;8.68;5.68;;;11.90;99.90;;;;;;6717186;88;20286;-78
2021/11/19 15:44:13;;;;;;;8.80;4.90;;;11.80;99.90;;;;;;6718244;88;20210;-76
2021/11/19 15:54:33;;;;;;;7.40;4.78;;;11.80;99.90;;;;;;6718428;88;20191;-76
2021/11/19 16:04:48;;;;;;;7.45;4.53;;;11.70;99.90;;;;;;6733428;88;20627;-78
2021/11/19 16:14:49;;;;;;;10.27;5.50;;;11.80;99.90;;;;;;6731955;88;20369;-79
2021/11/19 16:24:49;;;;;;;10.07;5.90;;;11.80;99.90;;;;;;6735182;88;20267;-78
2021/11/19 16:34:50;;;;;;;8.95;5.95;;;11.70;99.90;;;;;;6721993;88;20190;-78
2021/11/19 16:44:52;;;;;;;8.52;5.60;;;11.80;99.90;;;;;;6718249;88;20218;-78
2021/11/19 16:54:53;;;;;;;13.25;6.78;;;11.70;99.90;;;;;;6720440;88;20201;-78
2021/11/19 17:04:53;;;;;;;10.57;6.50;;;11.70;99.90;;;;;;6718398;88;20230;-76
2021/11/19 17:14:54;;;;;;;10.02;6.78;;;11.70;99.90;;;;;;6719266;88;20661;-78
2021/11/19 17:24:54;;;;;;;11.75;7.37;;;11.60;99.90;;;;;;6718082;88;20210;-77
2021/11/19 17:34:55;;;;;;;41.22;20.67;;;11.60;99.90;;;;;;6734550;88;20214;-76
2021/11/19 17:45:37;;;;;;;63.65;28.17;;;11.70;99.90;;;;;;6739177;77;20233;-80
2021/11/19 17:55:40;;;;;;;27.17;14.93;;;11.60;99.90;;;;;;6692770;88;20296;-80
2021/11/19 18:05:43;;;;;;;19.98;10.85;;;11.70;99.90;;;;;;6678543;89;20226;-80
2021/11/19 18:15:45;;;;;;;20.48;9.52;;;11.60;99.90;;;;;;6666037;89;20193;-80
2021/11/19 18:25:47;;;;;;;14.00;9.35;;;11.60;99.90;;;;;;6683423;89;20223;-80
2021/11/19 18:35:48;;;;;;;16.35;9.65;;;11.60;99.90;;;;;;6697606;89;20281;-79
2021/11/19 18:45:50;;;;;;;13.90;8.63;;;11.60;99.90;;;;;;6693090;88;20179;-78
2021/11/19 18:55:54;;;;;;;13.27;8.52;;;11.60;99.90;;;;;;6697948;88;20380;-78
2021/11/19 19:05:54;;;;;;;13.25;8.82;;;11.60;99.90;;;;;;6691658;88;20202;-78
2021/11/19 19:15:57;;;;;;;14.55;9.60;;;11.60;99.90;;;;;;6696261;88;20219;-80
2021/11/19 19:25:59;;;;;;;15.77;9.60;;;11.60;99.90;;;;;;6691923;88;20201;-79
2021/11/19 19:36:25;;;;;;;14.38;9.57;;;11.60;99.90;;;;;;6691702;88;20216;-80
2021/11/19 19:46:33;;;;;;;18.27;10.20;;;11.50;99.90;;;;;;6694607;88;20233;-78
2021/11/19 19:56:37;;;;;;;15.93;9.27;;;11.60;99.90;;;;;;6692343;88;20186;-78
2021/11/19 20:06:39;;;;;;;16.95;9.90;;;11.60;99.90;;;;;;6689712;88;20198;-80
2021/11/19 20:16:42;;;;;;;17.87;10.23;;;11.50;99.90;;;;;;6696706;88;20216;-79
2021/11/19 20:26:44;;;;;;;15.30;10.52;;;11.50;99.90;;;;;;6701851;88;20273;-78
2021/11/19 20:36:46;;;;;;;17.15;11.05;;;11.40;99.90;;;;;;6673198;89;20336;-78
2021/11/19 20:46:52;;;;;;;19.75;10.93;;;11.50;99.90;;;;;;6679413;89;20589;-78
2021/11/19 20:56:56;;;;;;;22.33;11.43;;;11.40;99.90;;;;;;6675897;89;20241;-78
2021/11/19 21:06:58;;;;;;;21.02;11.93;;;11.40;99.90;;;;;;6674213;89;20786;-79
2021/11/19 21:17:00;;;;;;;18.75;11.25;;;11.50;99.90;;;;;;6681304;89;20243;-79
2021/11/19 21:27:01;;;;;;;16.40;11.10;;;11.50;99.90;;;;;;6684762;89;20724;-81
2021/11/19 21:37:04;;;;;;;17.58;9.43;;;11.60;99.90;;;;;;6682663;89;20216;-78
2021/11/19 21:47:06;;;;;;;16.00;9.68;;;11.60;99.90;;;;;;6671756;89;20241;-78
2021/11/19 21:57:10;;;;;;;14.10;8.73;;;11.40;99.90;;;;;;6674764;89;20785;-78
2021/11/19 22:07:13;;;;;;;15.27;8.60;;;11.50;99.90;;;;;;6679685;89;20207;-79
2021/11/19 22:17:14;;;;;;;21.75;12.20;;;11.50;99.90;;;;;;6680408;89;20187;-79
2021/11/19 22:27:18;;;;;;;21.90;12.02;;;11.40;99.90;;;;;;6681428;89;20635;-80
2021/11/19 22:37:22;;;;;;;23.15;12.55;;;11.60;99.90;;;;;;6680427;89;20187;-80
2021/11/19 22:47:30;;;;;;;26.00;14.23;;;11.40;99.90;;;;;;6691161;88;20617;-79
2021/11/19 22:57:33;;;;;;;27.33;14.98;;;11.40;99.90;;;;;;6689782;89;20177;-81
2021/11/19 23:07:37;;;;;;;25.30;13.65;;;11.50;99.90;;;;;;6691006;89;20730;-81
2021/11/19 23:17:43;;;;;;;28.05;14.40;;;11.40;99.90;;;;;;6692988;89;20191;-81
2021/11/19 23:27:47;;;;;;;28.08;14.07;;;11.50;99.90;;;;;;6695668;89;20292;-81
2021/11/19 23:37:48;;;;;;;27.35;14.95;;;11.30;99.90;;;;;;6695528;89;20220;-81
2021/11/19 23:47:49;;;;;;;26.33;15.50;;;11.30;99.90;;;;;;6697050;77;20189;-80
2021/11/19 23:57:50;;;;;;;28.80;15.77;;;11.30;99.90;;;;;;6740931;87;20550;-81
